Greenville, Virginia
Current Conditions -  °F | °C
As of 5:35 AM on Thursday 23 Oct 2014 (Local Time) from KW13 Reporting Station
Clear Clear  
Wind Chill:   Ceiling: Unl
Heat Index:   Visibility: 10mi
Dew Point:   Wind: 8mph
Humidity: 79%   Direction: 280°W
Pressure: 29.99"   Gusts: NA
Location:  38°N, 79.16°W
Report Text: KW13 230935Z AUTO 28007KT 10SM CLR 06/03 A2999 RMK AO1 T00590025
Loading
Personal Weather Stations






























Interactive Weather Map
Tropical Storm Tracking
New forecast layout! Learn more

10-Day Weather Forecast

Advertisements
Track Severe Weather on mobile